This is the latest recevied weather packets stored in our database for station/object K0CPM-2. If no packets are shown the sender has not sent any weather packets the latest 10 day(s).
| Time | Temp. | Humidity | Pressure | Rain* | Wind** | Luminosity | Snow |
|---|---|---|---|---|---|---|---|
| 1777857341 | 18.33° C | 53% | 1015.5 hPa | 0 mm | - | - | - |
| 1777856450 | 19.44° C | 50% | 1015.5 hPa | 0 mm | - | - | - |
| 1777855545 | 20.56° C | 46% | 1015.4 hPa | 0 mm | - | - | - |
| 1777854640 | 21.67° C | 44% | 1015.2 hPa | 0 mm | - | - | - |
| 1777853741 | 22.22° C | 42% | 1015.2 hPa | 0 mm | - | - | - |
| 1777852838 | 22.78° C | 41% | 1015.1 hPa | 0 mm | - | - | - |
| 1777851940 | 23.33° C | 40% | 1015.2 hPa | 0 mm | - | - | - |
| 1777851035 | 24.44° C | 40% | 1015.3 hPa | 0 mm | - | - | - |
| 1777850134 | 25.56° C | 36% | 1015.5 hPa | 0 mm | - | - | - |
| 1777849239 | 26.11° C | 36% | 1015.5 hPa | 0 mm | - | - | - |
| 1777848332 | 26.11° C | 34% | 1015.6 hPa | 0 mm | - | - | - |
| 1777847432 | 26.11° C | 34% | 1015.6 hPa | 0 mm | - | - | - |
| 1777846533 | 26.67° C | 34% | 1015.8 hPa | 0 mm | - | - | - |
| 1777845634 | 26.67° C | 35% | 1015.8 hPa | 0 mm | - | - | - |
| 1777844736 | 26.11° C | 35% | 1016 hPa | 0 mm | - | - | - |
| 1777843832 | 26.67° C | 35% | 1016.3 hPa | 0 mm | - | - | - |
| 1777842923 | 26.67° C | 33% | 1016.5 hPa | 0 mm | - | - | - |
| 1777842021 | 26.67° C | 33% | 1016.7 hPa | 0 mm | - | - | - |
| 1777841126 | 26.11° C | 35% | 1016.9 hPa | 0 mm | - | - | - |
| 1777840220 | 26.67° C | 32% | 1017 hPa | 0 mm | - | - | - |
| 1777839318 | 26.11° C | 33% | 1017.3 hPa | 0 mm | - | - | - |
| 1777838417 | 26.11° C | 33% | 1017.5 hPa | 0 mm | - | - | - |
| 1777837516 | 25.56° C | 36% | 1017.6 hPa | 0 mm | - | - | - |
| 1777836616 | 26.11° C | 35% | 1017.9 hPa | 0 mm | - | - | - |
| 1777835715 | 26.11° C | 34% | 1018.2 hPa | 0 mm | - | - | - |
* Rain latest hour (hover to see other rain measurements)
** Current wind speed in m/s (hover to see current wind gust speed)